TimeCST,TemperatureF,Dew PointF,Humidity,Sea Level PressureIn,VisibilityMPH,Wind Direction,Wind SpeedMPH,Gust SpeedMPH,PrecipitationIn,Events,Conditions,WindDirDegrees,DateUTC
12:15 AM,68.7,68.7,100,30.07,4.0,Calm,Calm,-,N/A,,Mostly Cloudy,0,2012-11-27 06:15:00
12:35 AM,68.5,68.5,100,30.08,3.0,Calm,Calm,-,N/A,,Clear,0,2012-11-27 06:35:00
12:55 AM,68.4,68.4,100,30.07,4.0,WNW,5.8,-,N/A,,Clear,290,2012-11-27 06:55:00
1:15 AM,66.0,66.0,100,30.08,10.0,NW,17.3,26.5,N/A,,Mostly Cloudy,320,2012-11-27 07:15:00
1:35 AM,64.4,53.6,68,30.09,10.0,NNW,12.7,20.7,N/A,,Overcast,330,2012-11-27 07:35:00
1:55 AM,65.1,52.9,65,30.10,10.0,NNW,12.7,25.3,N/A,,Scattered Clouds,330,2012-11-27 07:55:00
2:15 AM,65.1,51.8,62,30.09,10.0,NNW,11.5,18.4,N/A,,Clear,330,2012-11-27 08:15:00
2:35 AM,64.6,51.6,63,30.10,10.0,NNW,9.2,-,N/A,,Clear,340,2012-11-27 08:35:00
2:55 AM,63.7,51.4,64,30.11,10.0,NNW,9.2,-,N/A,,Clear,330,2012-11-27 08:55:00
3:15 AM,63.1,51.3,65,30.11,10.0,NNW,11.5,16.1,N/A,,Clear,330,2012-11-27 09:15:00
4:15 AM,61.7,50.7,67,30.13,10.0,North,8.1,-,N/A,,Mostly Cloudy,10,2012-11-27 10:15:00
4:35 AM,61.0,50.5,68,30.16,10.0,NNW,12.7,18.4,N/A,,Mostly Cloudy,330,2012-11-27 10:35:00
4:55 AM,60.3,49.3,67,30.17,10.0,North,9.2,-,N/A,,Overcast,350,2012-11-27 10:55:00
5:15 AM,59.5,48.6,67,30.16,10.0,NNW,13.8,-,N/A,,Overcast,330,2012-11-27 11:15:00
5:35 AM,59.0,46.4,63,30.16,10.0,North,15.0,-,N/A,Rain,Light Rain,360,2012-11-27 11:35:00
5:55 AM,55.4,50.0,82,30.16,10.0,North,12.7,20.7,N/A,Rain,Light Rain,350,2012-11-27 11:55:00
6:15 AM,53.6,46.4,77,30.18,10.0,North,16.1,21.9,N/A,,Mostly Cloudy,350,2012-11-27 12:15:00
6:35 AM,55.0,48.4,78,30.20,10.0,NNW,11.5,-,N/A,,Mostly Cloudy,340,2012-11-27 12:35:00
6:55 AM,55.0,48.2,78,30.20,10.0,North,12.7,17.3,N/A,,Overcast,350,2012-11-27 12:55:00
7:15 AM,55.4,47.8,76,30.24,10.0,NW,9.2,18.4,N/A,,Overcast,320,2012-11-27 13:15:00
7:35 AM,55.0,48.0,77,30.25,10.0,NW,9.2,-,N/A,,Light Drizzle,320,2012-11-27 13:35:00
7:55 AM,54.3,48.6,81,30.26,7.0,NNW,8.1,20.7,N/A,Rain,Rain,330,2012-11-27 13:55:00
8:15 AM,53.4,49.3,86,30.27,10.0,NNW,8.1,-,0.01,Rain,Light Rain,340,2012-11-27 14:15:00
8:35 AM,53.1,48.7,85,30.28,10.0,NNW,12.7,17.3,0.01,,Overcast,340,2012-11-27 14:35:00
8:55 AM,53.1,48.0,83,30.28,10.0,NNW,12.7,18.4,0.01,,Overcast,340,2012-11-27 14:55:00
9:15 AM,51.8,46.4,82,30.29,10.0,NNW,9.2,17.3,N/A,Rain,Light Rain,330,2012-11-27 15:15:00
9:35 AM,53.6,48.6,83,30.29,10.0,NNW,13.8,-,N/A,,Light Drizzle,340,2012-11-27 15:35:00
9:55 AM,54.7,48.9,81,30.29,10.0,NNW,18.4,25.3,N/A,,Scattered Clouds,340,2012-11-27 15:55:00
10:15 AM,55.6,48.7,78,30.29,10.0,North,18.4,28.8,N/A,,Scattered Clouds,360,2012-11-27 16:15:00
10:35 AM,57.9,49.5,73,30.29,10.0,North,13.8,24.2,N/A,,Clear,360,2012-11-27 16:35:00
10:55 AM,59.9,49.6,69,30.29,10.0,NNW,13.8,20.7,N/A,,Clear,340,2012-11-27 16:55:00
11:15 AM,60.6,49.5,67,30.29,10.0,NNW,15.0,23.0,N/A,,Clear,340,2012-11-27 17:15:00
11:35 AM,61.5,49.5,65,30.28,10.0,North,15.0,-,N/A,,Clear,350,2012-11-27 17:35:00
11:55 AM,63.1,50.0,62,30.27,10.0,North,15.0,19.6,N/A,,Clear,360,2012-11-27 17:55:00
12:15 PM,64.0,50.4,61,30.27,10.0,North,16.1,21.9,N/A,,Clear,350,2012-11-27 18:15:00
12:35 PM,64.9,50.5,60,30.26,10.0,North,13.8,19.6,N/A,,Clear,360,2012-11-27 18:35:00
12:55 PM,65.8,50.9,58,30.26,10.0,North,12.7,18.4,N/A,,Scattered Clouds,10,2012-11-27 18:55:00
1:15 PM,66.2,50.9,58,30.25,10.0,North,13.8,-,N/A,,Scattered Clouds,360,2012-11-27 19:15:00
1:35 PM,67.1,51.1,56,30.24,10.0,North,10.4,20.7,N/A,,Scattered Clouds,10,2012-11-27 19:35:00
1:55 PM,66.7,51.3,57,30.24,10.0,North,15.0,20.7,N/A,,Scattered Clouds,10,2012-11-27 19:55:00
2:15 PM,66.6,51.3,58,30.24,10.0,North,15.0,-,N/A,,Mostly Cloudy,350,2012-11-27 20:15:00
2:35 PM,65.1,50.9,60,30.24,10.0,NNW,9.2,-,N/A,,Overcast,340,2012-11-27 20:35:00
2:55 PM,65.1,50.5,59,30.25,10.0,North,9.2,-,N/A,,Overcast,360,2012-11-27 20:55:00
3:15 PM,65.1,50.4,59,30.25,10.0,North,11.5,16.1,N/A,,Overcast,360,2012-11-27 21:15:00
3:35 PM,64.4,50.0,59,30.25,10.0,North,9.2,-,N/A,,Overcast,350,2012-11-27 21:35:00
3:55 PM,65.1,49.6,57,30.25,10.0,NNW,5.8,-,N/A,,Scattered Clouds,330,2012-11-27 21:55:00
4:15 PM,66.2,49.3,54,30.25,10.0,North,5.8,-,N/A,,Clear,350,2012-11-27 22:15:00
4:35 PM,66.2,49.8,55,30.26,10.0,NNW,8.1,-,N/A,,Clear,340,2012-11-27 22:35:00
4:55 PM,65.1,49.8,58,30.27,10.0,NNW,9.2,-,N/A,,Clear,340,2012-11-27 22:55:00
5:15 PM,63.1,49.6,61,30.27,10.0,North,8.1,-,N/A,,Clear,350,2012-11-27 23:15:00
5:35 PM,61.2,49.3,65,30.27,10.0,North,5.8,-,N/A,,Clear,350,2012-11-27 23:35:00
5:55 PM,59.5,49.1,68,30.29,10.0,NNW,8.1,-,N/A,,Clear,340,2012-11-27 23:55:00
6:15 PM,58.5,49.1,71,30.30,10.0,North,6.9,-,N/A,,Clear,350,2012-11-28 00:15:00
6:35 PM,55.4,48.2,77,30.31,10.0,North,5.8,-,N/A,,Clear,350,2012-11-28 00:35:00
6:55 PM,56.1,48.9,77,30.32,10.0,North,5.8,-,N/A,,Clear,350,2012-11-28 00:55:00
7:15 PM,55.2,48.7,79,30.32,10.0,North,6.9,-,N/A,,Clear,350,2012-11-28 01:15:00
7:35 PM,54.5,48.7,81,30.32,10.0,North,6.9,-,N/A,,Clear,350,2012-11-28 01:35:00
7:55 PM,54.5,48.4,80,30.32,10.0,NNW,5.8,-,N/A,,Clear,340,2012-11-28 01:55:00
8:15 PM,53.4,47.7,81,30.32,10.0,North,4.6,-,N/A,,Clear,350,2012-11-28 02:15:00
8:35 PM,51.6,46.9,84,30.33,10.0,North,3.5,-,N/A,,Clear,350,2012-11-28 02:35:00
8:55 PM,51.1,46.9,86,30.33,10.0,North,3.5,-,N/A,,Clear,350,2012-11-28 02:55:00
9:15 PM,50.9,46.9,86,30.33,10.0,NNW,5.8,-,N/A,,Clear,340,2012-11-28 03:15:00
9:35 PM,50.5,46.8,87,30.33,10.0,North,3.5,-,N/A,,Clear,350,2012-11-28 03:35:00
9:55 PM,49.8,46.6,89,30.34,10.0,Calm,Calm,-,N/A,,Clear,0,2012-11-28 03:55:00
10:15 PM,49.3,45.9,88,30.34,10.0,Calm,Calm,-,N/A,,Clear,0,2012-11-28 04:15:00
10:35 PM,47.8,46.0,93,30.34,10.0,Calm,Calm,-,N/A,,Clear,0,2012-11-28 04:35:00
10:55 PM,46.9,46.6,99,30.34,10.0,Calm,Calm,-,N/A,,Clear,0,2012-11-28 04:55:00
11:15 PM,46.4,46.4,100,30.34,10.0,NNW,3.5,-,N/A,,Clear,340,2012-11-28 05:15:00
11:35 PM,47.1,47.1,100,30.34,10.0,North,4.6,-,N/A,,Clear,350,2012-11-28 05:35:00
11:55 PM,45.9,45.9,100,30.34,10.0,North,3.5,-,N/A,,Clear,350,2012-11-28 05:55:00